Time;durP1;ratioP1;P1;durP2;ratioP2;P2;SDS_P1;SDS_P2;PMS_P1;PMS_P2;Temp;Humidity;BMP_temperature;BMP_pressure;BME280_temperature;BME280_humidity;BME280_pressure;Samples;Min_cycle;Max_cycle;Signal;HPM_P1;HPM_P2
2024/03/18 00:00:01;;;;;;;19.58;8.20;;;2.60;95.00;;;;;;5035858;28;20052;-65
2024/03/18 00:02:31;;;;;;;14.32;7.05;;;2.60;95.60;;;;;;5032010;28;20037;-66
2024/03/18 00:04:56;;;;;;;16.05;7.50;;;2.50;95.50;;;;;;5029138;28;20036;-67
2024/03/18 00:07:23;;;;;;;16.55;7.22;;;2.50;96.70;;;;;;5044746;28;20025;-66
2024/03/18 00:09:49;;;;;;;13.13;7.45;;;2.70;98.30;;;;;;5024948;28;20072;-65
2024/03/18 00:12:15;;;;;;;12.15;6.95;;;2.60;98.20;;;;;;5030866;28;20034;-67
2024/03/18 00:14:43;;;;;;;12.30;6.55;;;2.40;98.40;;;;;;5038730;28;20087;-67
2024/03/18 00:17:10;;;;;;;15.23;7.75;;;3.70;96.80;;;;;;5028578;28;20076;-65
2024/03/18 00:19:36;;;;;;;13.10;6.60;;;2.30;94.80;;;;;;5018273;28;20053;-65
2024/03/18 00:22:02;;;;;;;13.10;7.28;;;2.40;99.90;;;;;;5030204;28;20037;-65
2024/03/18 00:24:28;;;;;;;13.20;7.55;;;2.40;95.10;;;;;;5030490;28;20026;-65
2024/03/18 00:26:53;;;;;;;14.68;6.85;;;2.90;95.40;;;;;;5020150;28;20037;-66
2024/03/18 00:29:19;;;;;;;19.98;7.68;;;2.40;99.90;;;;;;5021534;28;20097;-65
2024/03/18 00:31:46;;;;;;;10.77;6.72;;;2.40;95.40;;;;;;5038307;28;20037;-65
2024/03/18 00:34:13;;;;;;;17.85;7.90;;;2.30;95.30;;;;;;5041103;28;20248;-66
2024/03/18 00:36:39;;;;;;;16.17;6.82;;;;;;;;;;5029080;28;20049;-65
2024/03/18 00:39:06;;;;;;;16.15;8.45;;;2.40;95.90;;;;;;5030051;28;20061;-63
2024/03/18 00:41:45;;;;;;;13.43;7.40;;;2.20;95.80;;;;;;5027615;28;20033;-65
2024/03/18 00:44:12;;;;;;;;;;;2.20;95.80;;;;;;5027855;28;20132;-66
2024/03/18 00:46:37;;;;;;;13.80;6.03;;;2.20;96.10;;;;;;5040609;28;19920;-65
2024/03/18 00:49:04;;;;;;;10.63;6.90;;;2.10;99.90;;;;;;5023258;28;20326;-66
2024/03/18 00:51:31;;;;;;;9.70;6.47;;;2.00;99.90;;;;;;5020954;28;20029;-65
2024/03/18 00:53:57;;;;;;;15.20;7.00;;;2.10;96.10;;;;;;5029111;28;20080;-65
2024/03/18 00:56:23;;;;;;;15.10;6.60;;;2.10;96.20;;;;;;5028956;28;20113;-65
2024/03/18 00:58:49;;;;;;;12.27;6.65;;;2.50;96.10;;;;;;5028921;28;20030;-65
2024/03/18 01:01:15;;;;;;;17.58;6.38;;;2.00;96.30;;;;;;5025691;28;20056;-66
2024/03/18 01:03:41;;;;;;;12.15;6.65;;;;;;;;;;5034044;28;20033;-65
2024/03/18 01:06:07;;;;;;;14.40;6.95;;;2.00;96.40;;;;;;5030526;28;20202;-64
2024/03/18 01:08:32;;;;;;;11.88;7.35;;;2.10;99.90;;;;;;5027488;28;20022;-66
2024/03/18 01:10:58;;;;;;;13.98;7.20;;;1.90;97.10;;;;;;5034172;28;20429;-66
2024/03/18 01:13:31;;;;;;;11.20;5.70;;;2.30;97.40;;;;;;5035116;28;20036;-66
2024/03/18 01:15:58;;;;;;;10.55;6.43;;;2.00;97.30;;;;;;5028569;28;20049;-66
2024/03/18 01:18:24;;;;;;;12.88;7.10;;;2.00;97.30;;;;;;5034481;28;20061;-66
2024/03/18 01:20:50;;;;;;;21.20;8.82;;;;;;;;;;5024191;28;20037;-66
2024/03/18 01:23:16;;;;;;;16.65;6.95;;;1.90;97.20;;;;;;5020318;28;20057;-67
2024/03/18 01:25:42;;;;;;;11.85;7.38;;;1.90;97.80;;;;;;5014080;28;20046;-68
2024/03/18 01:28:08;;;;;;;12.40;6.38;;;1.80;99.40;;;;;;5022086;28;20040;-67
2024/03/18 01:30:34;;;;;;;15.55;6.75;;;1.90;99.90;;;;;;5028485;28;20041;-66
2024/03/18 01:32:59;;;;;;;13.07;7.00;;;2.30;99.90;;;;;;5031350;28;20045;-66
2024/03/18 01:35:25;;;;;;;11.55;7.07;;;1.80;99.90;;;;;;5027812;28;20191;-67
2024/03/18 01:37:51;;;;;;;9.77;6.72;;;1.60;99.90;;;;;;5021374;28;20292;-66
2024/03/18 01:40:17;;;;;;;13.68;7.43;;;1.60;99.90;;;;;;5038382;28;20096;-67
2024/03/18 01:42:44;;;;;;;11.68;7.10;;;1.60;99.90;;;;;;5023096;28;20041;-66
2024/03/18 01:45:11;;;;;;;14.38;7.68;;;;;;;;;;5039532;28;20376;-68
2024/03/18 01:47:38;;;;;;;12.55;7.03;;;1.70;99.90;;;;;;5032612;28;20041;-64
2024/03/18 01:50:05;;;;;;;19.25;7.35;;;1.70;99.90;;;;;;5028169;28;20049;-67
2024/03/18 01:52:31;;;;;;;13.32;6.22;;;1.60;99.90;;;;;;5027838;28;20049;-66
2024/03/18 01:54:56;;;;;;;9.52;6.60;;;1.60;99.90;;;;;;5031950;28;20029;-66
2024/03/18 01:57:24;;;;;;;11.95;6.97;;;1.60;99.90;;;;;;5039259;28;20432;-68
2024/03/18 01:59:50;;;;;;;16.45;7.72;;;1.50;99.90;;;;;;5039048;28;20220;-66
2024/03/18 02:02:17;;;;;;;11.50;7.65;;;;;;;;;;5026285;28;20034;-65
2024/03/18 02:04:43;;;;;;;15.10;7.20;;;1.60;99.90;;;;;;5024726;28;20041;-66
2024/03/18 02:07:24;;;;;;;11.98;7.38;;;1.10;99.90;;;;;;5031271;28;20029;-65
2024/03/18 02:09:51;;;;;;;11.18;6.93;;;;;;;;;;5024917;28;20030;-66
2024/03/18 02:12:18;;;;;;;16.90;7.75;;;1.50;98.50;;;;;;5025074;28;20044;-67
2024/03/18 02:14:50;;;;;;;11.52;6.75;;;1.50;98.50;;;;;;5030670;28;20086;-66
2024/03/18 02:17:17;;;;;;;17.15;7.60;;;;;;;;;;5027865;28;20061;-65
2024/03/18 02:19:43;;;;;;;13.68;6.72;;;;;;;;;;5024564;28;20030;-66
2024/03/18 02:22:09;;;;;;;12.48;6.95;;;;;;;;;;5030434;28;20043;-66
2024/03/18 02:24:35;;;;;;;13.98;7.80;;;;;;;;;;5038941;28;20025;-66
2024/03/18 02:27:08;;;;;;;14.10;7.63;;;1.40;99.90;;;;;;5030266;28;20041;-64
2024/03/18 02:29:33;;;;;;;15.57;8.10;;;1.40;99.90;;;;;;5019374;28;20360;-65
2024/03/18 02:31:59;;;;;;;10.93;7.43;;;1.40;99.60;;;;;;5029841;28;20040;-64
2024/03/18 02:34:25;;;;;;;11.73;6.88;;;1.30;99.70;;;;;;5030836;28;20041;-66
2024/03/18 02:36:52;;;;;;;13.63;7.88;;;1.10;99.90;;;;;;5035559;28;20029;-64
2024/03/18 02:39:19;;;;;;;16.25;8.48;;;1.20;99.90;;;;;;5033644;28;20073;-65
2024/03/18 02:41:45;;;;;;;15.05;8.48;;;1.20;99.90;;;;;;5047354;28;20087;-64
2024/03/18 02:44:12;;;;;;;15.98;8.13;;;1.40;99.90;;;;;;5027292;28;20492;-64
2024/03/18 02:46:38;;;;;;;19.73;8.45;;;;;;;;;;5019041;28;20033;-65
2024/03/18 02:49:04;;;;;;;14.77;8.40;;;1.20;99.90;;;;;;5030452;28;20038;-63
2024/03/18 02:51:30;;;;;;;17.27;8.35;;;1.20;99.90;;;;;;5034309;28;20046;-66
2024/03/18 02:53:56;;;;;;;18.15;9.50;;;1.30;99.90;;;;;;5021021;28;20326;-64
2024/03/18 02:56:21;;;;;;;14.80;9.30;;;0.90;99.90;;;;;;5022263;28;20060;-66
2024/03/18 02:58:47;;;;;;;24.25;10.57;;;1.10;99.90;;;;;;5022061;28;20088;-64
2024/03/18 03:01:13;;;;;;;16.55;9.73;;;0.00;99.90;;;;;;5038569;28;20048;-67
2024/03/18 03:03:38;;;;;;;16.50;9.43;;;1.20;99.90;;;;;;5022884;28;20030;-64
2024/03/18 03:06:06;;;;;;;18.05;9.32;;;1.20;99.90;;;;;;5036266;28;20100;-68
2024/03/18 03:08:32;;;;;;;16.00;8.85;;;1.20;99.90;;;;;;5030774;28;20034;-66
2024/03/18 03:11:03;;;;;;;22.58;9.88;;;1.20;99.90;;;;;;5021465;28;20025;-64
2024/03/18 03:13:29;;;;;;;15.50;9.82;;;1.20;99.90;;;;;;5038205;28;20033;-64
2024/03/18 03:15:56;;;;;;;15.68;9.73;;;1.10;99.90;;;;;;5033791;28;20033;-63
2024/03/18 03:18:22;;;;;;;17.90;9.73;;;1.30;99.90;;;;;;5025338;28;20034;-64
2024/03/18 03:20:48;;;;;;;18.08;10.18;;;1.20;99.90;;;;;;5020869;28;20235;-64
2024/03/18 03:23:14;;;;;;;16.42;9.70;;;1.20;99.90;;;;;;5030502;28;20093;-63
2024/03/18 03:25:41;;;;;;;17.08;9.40;;;1.00;99.90;;;;;;5024353;28;20036;-65
2024/03/18 03:28:08;;;;;;;15.18;9.40;;;1.20;99.90;;;;;;5017802;28;20109;-64
2024/03/18 03:30:34;;;;;;;15.75;9.32;;;1.10;99.90;;;;;;5020402;28;20212;-65
2024/03/18 03:33:01;;;;;;;20.88;8.95;;;1.00;99.90;;;;;;5024402;28;20064;-64
2024/03/18 03:35:27;;;;;;;20.50;10.00;;;1.00;99.90;;;;;;5024046;28;20076;-66
2024/03/18 03:37:53;;;;;;;15.63;8.48;;;1.00;99.90;;;;;;5022118;28;20034;-64
2024/03/18 03:40:18;;;;;;;17.17;8.82;;;0.90;99.90;;;;;;5030167;28;20054;-64
2024/03/18 03:42:44;;;;;;;17.10;8.93;;;0.90;99.90;;;;;;5030574;28;20096;-65
2024/03/18 03:45:10;;;;;;;17.50;9.77;;;0.60;99.90;;;;;;5030433;28;20325;-64
2024/03/18 03:47:36;;;;;;;17.92;10.43;;;0.80;99.90;;;;;;5023709;28;20041;-64
2024/03/18 03:50:02;;;;;;;16.73;8.60;;;0.90;99.90;;;;;;5032211;28;20091;-65
2024/03/18 03:52:28;;;;;;;16.13;10.15;;;;;;;;;;5020552;28;20052;-64
2024/03/18 03:54:54;;;;;;;17.63;10.27;;;;;;;;;;5031802;28;20070;-65
2024/03/18 03:57:20;;;;;;;18.75;9.77;;;;;;;;;;5025899;28;20056;-65
2024/03/18 03:59:47;;;;;;;24.05;10.43;;;0.80;99.90;;;;;;5031926;28;20407;-64
2024/03/18 04:02:15;;;;;;;19.98;10.70;;;0.90;99.90;;;;;;5031774;28;20226;-65
2024/03/18 04:04:41;;;;;;;16.52;9.95;;;;;;;;;;5026372;28;20041;-65
2024/03/18 04:07:07;;;;;;;17.77;9.90;;;0.80;99.90;;;;;;5026668;28;20369;-64
2024/03/18 04:09:33;;;;;;;20.80;9.90;;;0.80;99.90;;;;;;5017529;28;20037;-64
2024/03/18 04:11:59;;;;;;;22.73;10.18;;;1.00;99.90;;;;;;5023660;28;20037;-64
2024/03/18 04:14:24;;;;;;;18.20;9.13;;;0.90;99.90;;;;;;5028884;28;20069;-63
2024/03/18 04:16:50;;;;;;;16.02;9.18;;;0.80;99.90;;;;;;5017696;28;20026;-63
2024/03/18 04:19:16;;;;;;;14.90;9.07;;;1.00;99.90;;;;;;5026777;28;20041;-63
2024/03/18 04:21:42;;;;;;;14.85;9.25;;;0.90;99.90;;;;;;5041029;28;20067;-66
2024/03/18 04:24:10;;;;;;;14.40;9.23;;;1.00;99.90;;;;;;5033371;28;20030;-63
2024/03/18 04:26:36;;;;;;;16.70;9.23;;;0.90;99.90;;;;;;5023333;28;20030;-66
2024/03/18 04:29:03;;;;;;;13.00;8.25;;;1.30;99.90;;;;;;5027636;28;20104;-66
2024/03/18 04:31:30;;;;;;;16.73;8.90;;;0.80;99.90;;;;;;5034337;28;20037;-65
2024/03/18 04:33:56;;;;;;;17.55;8.63;;;0.60;99.90;;;;;;5022445;28;20029;-63
2024/03/18 04:36:22;;;;;;;15.85;9.02;;;0.90;99.90;;;;;;5032386;28;20025;-64
2024/03/18 04:38:47;;;;;;;15.80;8.55;;;0.70;99.90;;;;;;5023456;28;20032;-65
2024/03/18 04:41:13;;;;;;;22.35;10.05;;;0.80;99.90;;;;;;5034895;28;20029;-64
2024/03/18 04:43:39;;;;;;;14.52;8.75;;;;;;;;;;5032373;28;20061;-64
2024/03/18 04:46:06;;;;;;;17.55;8.30;;;0.60;99.90;;;;;;5037092;28;20361;-64
2024/03/18 04:48:32;;;;;;;17.33;8.80;;;0.80;99.90;;;;;;5029106;28;20030;-63
2024/03/18 04:50:57;;;;;;;15.15;7.35;;;0.70;99.90;;;;;;5030037;28;20283;-64
2024/03/18 04:53:23;;;;;;;15.90;7.90;;;0.70;99.90;;;;;;5020664;28;20041;-64
2024/03/18 04:55:49;;;;;;;18.48;8.65;;;0.70;99.90;;;;;;5026787;28;20113;-63
2024/03/18 04:58:15;;;;;;;15.25;8.57;;;0.70;99.90;;;;;;5028966;28;20365;-64
2024/03/18 05:00:42;;;;;;;17.45;8.25;;;0.70;99.90;;;;;;5024429;28;20041;-64
2024/03/18 05:03:08;;;;;;;16.55;7.82;;;0.60;99.90;;;;;;5031065;28;20029;-64
2024/03/18 05:05:34;;;;;;;14.45;8.70;;;0.70;99.90;;;;;;5025349;28;20041;-64
2024/03/18 05:07:59;;;;;;;17.23;8.27;;;0.50;99.90;;;;;;5027307;28;20097;-64
2024/03/18 05:10:27;;;;;;;21.80;8.98;;;0.40;99.90;;;;;;5020894;28;20495;-63
2024/03/18 05:13:01;;;;;;;15.30;8.57;;;0.50;99.90;;;;;;5031889;28;20043;-67
2024/03/18 05:15:27;;;;;;;14.80;8.45;;;0.50;99.90;;;;;;5028243;28;20408;-66
2024/03/18 05:17:52;;;;;;;21.27;11.40;;;0.60;99.90;;;;;;5022405;28;20037;-65
2024/03/18 05:20:18;;;;;;;18.27;9.68;;;0.30;99.90;;;;;;5034625;28;20076;-65
2024/03/18 05:22:44;;;;;;;19.92;10.38;;;0.30;99.90;;;;;;5032697;28;20049;-65
2024/03/18 05:25:12;;;;;;;16.55;9.90;;;0.50;99.90;;;;;;5034358;28;20036;-67
2024/03/18 05:27:38;;;;;;;20.75;8.80;;;0.80;99.90;;;;;;5031807;28;20033;-67
2024/03/18 05:30:05;;;;;;;16.05;8.38;;;0.80;99.90;;;;;;5029029;28;20397;-67
2024/03/18 05:32:32;;;;;;;16.73;9.90;;;0.80;99.90;;;;;;5030796;28;20342;-66
2024/03/18 05:35:00;;;;;;;19.95;10.70;;;0.60;99.90;;;;;;5032578;28;20095;-66
2024/03/18 05:37:26;;;;;;;19.17;10.63;;;0.70;99.90;;;;;;5039999;28;20045;-64
2024/03/18 05:39:54;;;;;;;23.35;10.63;;;0.60;99.90;;;;;;5034213;28;20053;-64
2024/03/18 05:42:21;;;;;;;22.92;9.82;;;0.60;99.90;;;;;;5048654;28;20068;-64
2024/03/18 05:44:46;;;;;;;16.90;8.63;;;0.80;99.90;;;;;;5042363;28;20037;-64
2024/03/18 05:47:12;;;;;;;19.60;9.52;;;0.90;99.90;;;;;;5028259;28;20265;-67
2024/03/18 05:49:38;;;;;;;15.20;9.25;;;0.90;99.90;;;;;;5027650;28;20045;-64
2024/03/18 05:52:04;;;;;;;15.65;9.55;;;1.10;99.90;;;;;;5030740;28;20037;-65
2024/03/18 05:54:30;;;;;;;15.93;10.52;;;1.00;99.90;;;;;;5025146;28;20045;-65
2024/03/18 05:56:56;;;;;;;20.67;10.43;;;1.00;99.90;;;;;;5037203;28;20087;-65
2024/03/18 05:59:21;;;;;;;18.10;10.70;;;1.00;99.90;;;;;;5021723;28;20313;-65
2024/03/18 06:01:47;;;;;;;15.63;9.80;;;1.10;99.90;;;;;;5037940;28;20384;-67
2024/03/18 06:04:13;;;;;;;19.20;10.23;;;1.20;99.90;;;;;;5034644;28;20084;-69
2024/03/18 06:06:40;;;;;;;21.92;10.60;;;1.20;99.90;;;;;;5033518;28;20050;-68
2024/03/18 06:09:06;;;;;;;20.05;10.68;;;1.10;99.90;;;;;;5025010;28;20029;-66
2024/03/18 06:11:33;;;;;;;16.25;9.63;;;1.20;99.90;;;;;;5022323;28;20119;-68
2024/03/18 06:13:59;;;;;;;23.23;11.70;;;1.30;99.90;;;;;;5032803;28;20345;-63
2024/03/18 06:16:25;;;;;;;20.70;10.43;;;1.50;99.90;;;;;;5033412;28;20096;-63
2024/03/18 06:18:51;;;;;;;16.58;10.02;;;1.30;99.90;;;;;;5033881;28;20037;-66
2024/03/18 06:21:17;;;;;;;14.18;9.35;;;1.30;99.90;;;;;;5019958;28;20457;-66
2024/03/18 06:23:55;;;;;;;18.02;9.43;;;1.40;99.90;;;;;;5013183;28;20616;-66
2024/03/18 06:26:21;;;;;;;22.27;9.77;;;1.50;99.90;;;;;;5035551;28;20056;-65
2024/03/18 06:28:47;;;;;;;18.65;10.40;;;1.60;99.90;;;;;;5028727;28;20029;-64
2024/03/18 06:31:14;;;;;;;17.42;10.05;;;1.80;99.90;;;;;;5029492;28;20026;-65
2024/03/18 06:33:40;;;;;;;18.77;10.20;;;1.70;99.90;;;;;;5019760;28;20053;-65
2024/03/18 06:36:09;;;;;;;22.00;11.05;;;1.70;99.90;;;;;;5039544;28;20025;-66
2024/03/18 06:38:36;;;;;;;15.52;9.77;;;2.10;99.90;;;;;;5023620;28;20037;-67
2024/03/18 06:41:02;;;;;;;15.55;9.55;;;2.10;99.90;;;;;;5027239;28;20120;-68
2024/03/18 06:43:27;;;;;;;18.08;10.23;;;2.10;99.90;;;;;;5023138;28;20046;-65
2024/03/18 06:45:53;;;;;;;16.83;9.55;;;2.00;99.90;;;;;;5016081;28;20311;-67
2024/03/18 06:48:19;;;;;;;20.80;11.10;;;2.40;99.90;;;;;;5031529;28;20330;-66
2024/03/18 06:50:44;;;;;;;17.40;10.57;;;2.20;99.90;;;;;;5042362;28;20512;-66
2024/03/18 06:53:11;;;;;;;17.60;10.32;;;;;;;;;;5028677;28;20044;-65
2024/03/18 06:55:38;;;;;;;17.30;10.73;;;2.50;99.90;;;;;;5035539;28;20039;-65
2024/03/18 06:58:04;;;;;;;15.63;10.32;;;2.70;99.90;;;;;;5026153;28;20048;-64
2024/03/18 07:00:31;;;;;;;20.90;10.38;;;;;;;;;;5024644;28;20037;-65
2024/03/18 07:02:57;;;;;;;19.75;10.57;;;;;;;;;;5036224;28;20028;-67
2024/03/18 07:05:23;;;;;;;17.88;10.07;;;3.00;99.90;;;;;;5033276;28;20045;-64
2024/03/18 07:07:51;;;;;;;17.50;11.15;;;3.40;99.90;;;;;;5032416;28;20029;-65
2024/03/18 07:10:18;;;;;;;21.45;10.63;;;3.40;99.80;;;;;;5025040;28;20502;-65
2024/03/18 07:12:46;;;;;;;18.35;9.98;;;3.60;99.50;;;;;;5032073;28;20057;-65
2024/03/18 07:15:16;;;;;;;21.38;12.30;;;3.70;98.90;;;;;;5026464;28;20025;-65
2024/03/18 07:17:45;;;;;;;18.75;10.82;;;4.00;99.90;;;;;;5025764;28;20022;-65
2024/03/18 07:20:12;;;;;;;22.73;11.52;;;4.10;99.90;;;;;;5030579;28;20250;-67
2024/03/18 07:22:42;;;;;;;19.73;11.52;;;4.20;98.00;;;;;;5025265;28;20104;-66
2024/03/18 07:25:17;;;;;;;20.13;10.98;;;4.30;98.00;;;;;;5040057;28;20041;-64
2024/03/18 07:27:44;;;;;;;19.50;10.10;;;4.50;96.20;;;;;;5040151;28;20092;-65
2024/03/18 07:30:11;;;;;;;16.17;9.20;;;4.80;99.90;;;;;;5037532;28;20072;-66
2024/03/18 07:32:37;;;;;;;19.33;9.93;;;4.70;99.90;;;;;;5038707;28;20325;-64
2024/03/18 07:35:04;;;;;;;18.75;9.30;;;5.60;99.90;;;;;;5031155;28;20044;-64
2024/03/18 07:37:32;;;;;;;11.80;7.72;;;5.10;99.90;;;;;;5054339;28;20038;-66
2024/03/18 07:39:58;;;;;;;17.83;9.23;;;5.40;99.90;;;;;;5032770;28;20104;-66
2024/03/18 07:42:24;;;;;;;14.55;7.40;;;;;;;;;;5030184;28;20326;-65
2024/03/18 07:44:51;;;;;;;11.20;6.38;;;;;;;;;;5031680;28;20041;-65
2024/03/18 07:47:17;;;;;;;13.80;5.95;;;6.20;89.60;;;;;;5022646;28;20046;-65
2024/03/18 07:49:43;;;;;;;15.80;7.10;;;6.30;96.50;;;;;;5037774;28;20037;-65
2024/03/18 07:52:08;;;;;;;12.05;5.20;;;6.50;96.20;;;;;;5029996;28;20633;-65
2024/03/18 07:54:36;;;;;;;13.82;7.32;;;6.60;81.30;;;;;;5022130;28;20352;-65
2024/03/18 07:57:02;;;;;;;13.40;5.85;;;6.60;82.20;;;;;;5017950;28;20034;-66
2024/03/18 07:59:28;;;;;;;11.05;6.03;;;6.80;81.70;;;;;;5029192;28;20050;-66
2024/03/18 08:01:58;;;;;;;13.75;6.97;;;7.00;94.80;;;;;;5031336;28;20048;-66
2024/03/18 08:04:26;;;;;;;16.67;7.88;;;7.10;78.60;;;;;;5015849;28;20030;-66
2024/03/18 08:06:51;;;;;;;13.93;6.50;;;7.20;77.00;;;;;;5028048;28;20034;-66
2024/03/18 08:09:18;;;;;;;14.30;6.53;;;7.30;75.00;;;;;;5041560;28;20272;-68
2024/03/18 08:11:45;;;;;;;9.77;5.15;;;7.50;91.80;;;;;;5026751;28;20117;-66
2024/03/18 08:14:11;;;;;;;14.80;6.13;;;7.60;91.80;;;;;;5021527;28;20030;-68
2024/03/18 08:16:38;;;;;;;15.27;6.47;;;7.70;91.50;;;;;;5029319;28;20061;-66
2024/03/18 08:19:03;;;;;;;11.48;5.72;;;7.70;90.90;;;;;;5041436;28;20096;-66
2024/03/18 08:21:30;;;;;;;12.98;5.38;;;7.90;90.10;;;;;;5041248;28;20399;-67
2024/03/18 08:23:56;;;;;;;12.63;5.43;;;7.80;69.50;;;;;;5036711;28;20033;-66
2024/03/18 08:26:22;;;;;;;8.63;4.93;;;8.00;88.90;;;;;;5027532;28;20340;-66
2024/03/18 08:28:47;;;;;;;10.38;3.65;;;8.10;68.30;;;;;;5027336;28;20033;-66
2024/03/18 08:31:13;;;;;;;7.78;3.45;;;8.20;67.20;;;;;;5020311;28;20585;-67
2024/03/18 08:33:39;;;;;;;7.35;3.50;;;8.30;66.20;;;;;;5026034;28;20213;-65
2024/03/18 08:36:05;;;;;;;10.88;4.03;;;8.50;86.80;;;;;;5032922;28;20215;-65
2024/03/18 08:38:31;;;;;;;6.88;3.63;;;8.50;64.40;;;;;;5041739;28;20105;-65
2024/03/18 08:40:57;;;;;;;7.45;3.22;;;8.60;61.80;;;;;;5038397;28;20333;-65
2024/03/18 08:43:25;;;;;;;6.97;2.53;;;8.70;61.90;;;;;;5040104;28;20081;-64
2024/03/18 08:45:52;;;;;;;9.07;3.90;;;8.90;62.10;;;;;;5037693;28;20033;-67
2024/03/18 08:48:19;;;;;;;8.57;2.78;;;9.00;60.50;;;;;;5027951;28;20030;-66
2024/03/18 08:50:45;;;;;;;9.93;2.80;;;9.40;59.00;;;;;;5021250;28;20038;-65
2024/03/18 08:53:12;;;;;;;7.68;3.20;;;9.10;59.00;;;;;;5025917;28;20033;-67
2024/03/18 08:55:39;;;;;;;5.30;2.72;;;9.30;58.30;;;;;;5024926;28;20318;-63
2024/03/18 08:58:05;;;;;;;9.75;2.95;;;9.60;81.50;;;;;;5023765;28;20029;-66
2024/03/18 09:00:30;;;;;;;11.32;3.28;;;9.50;58.00;;;;;;5026243;28;20330;-64
2024/03/18 09:02:57;;;;;;;6.53;2.88;;;9.60;57.70;;;;;;5021961;28;20040;-64
2024/03/18 09:05:23;;;;;;;8.45;2.83;;;9.60;55.20;;;;;;5026727;28;20030;-64
2024/03/18 09:07:49;;;;;;;8.80;3.47;;;9.60;56.20;;;;;;5020571;28;20026;-64
2024/03/18 09:10:15;;;;;;;5.72;3.25;;;;;;;;;;5026646;28;20038;-65
2024/03/18 09:12:43;;;;;;;7.93;3.70;;;9.80;78.10;;;;;;5028795;28;20102;-65
2024/03/18 09:15:09;;;;;;;9.48;3.20;;;9.70;56.60;;;;;;5019440;28;20030;-64
2024/03/18 09:17:35;;;;;;;6.95;3.47;;;9.80;76.00;;;;;;5022513;28;20143;-65
2024/03/18 09:20:00;;;;;;;5.88;3.22;;;9.80;75.40;;;;;;5029659;28;20350;-64
2024/03/18 09:22:26;;;;;;;6.88;4.13;;;9.70;75.10;;;;;;5020202;28;20034;-64
2024/03/18 09:24:52;;;;;;;7.70;3.38;;;10.10;74.50;;;;;;5028355;28;20036;-64
2024/03/18 09:27:17;;;;;;;6.30;2.97;;;9.90;73.90;;;;;;5021703;28;20317;-64
2024/03/18 09:29:43;;;;;;;11.55;3.25;;;9.90;73.90;;;;;;5024376;28;20306;-67
2024/03/18 09:32:09;;;;;;;4.78;2.38;;;10.00;73.90;;;;;;5020062;28;20038;-64
2024/03/18 09:34:35;;;;;;;8.00;2.90;;;9.70;72.80;;;;;;5022501;28;20029;-67
2024/03/18 09:37:01;;;;;;;6.07;3.40;;;;;;;;;;5022673;28;20060;-64
2024/03/18 09:39:27;;;;;;;10.20;4.00;;;9.90;73.20;;;;;;5025184;28;20299;-65
2024/03/18 09:41:53;;;;;;;5.97;2.78;;;10.00;62.60;;;;;;5021244;28;20053;-65
2024/03/18 09:44:20;;;;;;;9.32;2.47;;;;;;;;;;5021998;28;20045;-64
2024/03/18 09:46:47;;;;;;;4.25;2.05;;;10.40;59.90;;;;;;5020098;28;20034;-66
2024/03/18 09:49:20;;;;;;;8.85;3.05;;;10.20;53.20;;;;;;5025655;28;20033;-67
2024/03/18 09:51:48;;;;;;;6.95;3.25;;;10.40;71.80;;;;;;5024618;28;20072;-67
2024/03/18 09:54:19;;;;;;;7.57;3.00;;;10.40;53.40;;;;;;5021905;28;20037;-66
2024/03/18 09:56:51;;;;;;;5.35;2.70;;;10.60;73.70;;;;;;5019381;28;20093;-68
2024/03/18 09:59:17;;;;;;;7.68;2.67;;;;;;;;;;5030243;28;20042;-64
2024/03/18 10:01:42;;;;;;;5.50;3.05;;;10.80;51.70;;;;;;5021205;28;20100;-66
2024/03/18 10:04:08;;;;;;;4.90;2.75;;;11.10;71.50;;;;;;5019885;28;20356;-66
2024/03/18 10:06:34;;;;;;;6.55;2.53;;;11.10;51.90;;;;;;5034795;28;20096;-65
2024/03/18 10:09:00;;;;;;;11.43;3.13;;;11.20;69.70;;;;;;5022239;28;20041;-64
2024/03/18 10:11:25;;;;;;;8.05;2.80;;;11.30;68.80;;;;;;5019532;28;20026;-65
2024/03/18 10:13:51;;;;;;;4.10;2.47;;;11.30;49.40;;;;;;5020485;28;20030;-65
2024/03/18 10:16:18;;;;;;;8.48;2.90;;;11.40;50.10;;;;;;5024883;28;20035;-67
2024/03/18 10:18:45;;;;;;;4.40;2.50;;;11.50;69.30;;;;;;5032598;28;20037;-64
2024/03/18 10:21:14;;;;;;;9.93;2.92;;;11.40;68.60;;;;;;5020714;28;20413;-66
2024/03/18 10:23:53;;;;;;;6.35;3.00;;;11.40;49.60;;;;;;5024842;28;20087;-65
2024/03/18 10:26:19;;;;;;;5.95;2.22;;;11.40;48.10;;;;;;5019309;28;20060;-65
2024/03/18 10:28:48;;;;;;;4.45;2.38;;;11.40;48.60;;;;;;5019306;28;20164;-66
2024/03/18 10:31:19;;;;;;;5.55;2.40;;;11.10;68.40;;;;;;5019250;28;20030;-66
2024/03/18 10:33:46;;;;;;;5.43;2.95;;;11.30;67.80;;;;;;5020324;28;20281;-65
2024/03/18 10:36:26;;;;;;;7.68;3.05;;;11.50;67.80;;;;;;5019110;28;20094;-65
2024/03/18 10:39:08;;;;;;;5.85;2.92;;;11.50;49.10;;;;;;5020071;28;20045;-67
2024/03/18 10:41:38;;;;;;;7.25;3.42;;;11.60;68.20;;;;;;5021286;28;20022;-65
2024/03/18 10:44:19;;;;;;;9.75;3.63;;;11.80;49.20;;;;;;5023875;28;20029;-67
2024/03/18 10:46:46;;;;;;;7.07;2.97;;;11.90;48.70;;;;;;5021840;28;20042;-67
2024/03/18 10:49:18;;;;;;;6.75;2.83;;;12.00;48.60;;;;;;5021249;28;20025;-66
2024/03/18 10:51:48;;;;;;;6.00;2.95;;;12.00;48.10;;;;;;5020246;28;20034;-68
2024/03/18 10:54:16;;;;;;;5.50;2.63;;;12.00;48.00;;;;;;5028926;28;20033;-66
2024/03/18 10:56:46;;;;;;;2.63;1.60;;;11.80;61.90;;;;;;5018884;28;20595;-67
2024/03/18 10:59:22;;;;;;;7.20;3.53;;;12.00;62.20;;;;;;5030529;28;20092;-65
2024/03/18 11:01:48;;;;;;;5.00;2.33;;;12.20;62.10;;;;;;5029719;28;20071;-67
2024/03/18 11:04:21;;;;;;;5.07;2.78;;;12.60;52.10;;;;;;5018811;28;20115;-64
2024/03/18 11:06:57;;;;;;;6.45;3.42;;;13.40;46.40;;;;;;5035071;28;20033;-64
2024/03/18 11:09:24;;;;;;;9.90;3.05;;;12.30;46.30;;;;;;5020307;28;20057;-64
2024/03/18 11:11:50;;;;;;;7.40;3.40;;;12.60;61.00;;;;;;5018684;28;20377;-64
2024/03/18 11:14:42;;;;;;;8.45;3.30;;;12.40;46.30;;;;;;5018931;28;20060;-65
2024/03/18 11:17:08;;;;;;;5.60;3.28;;;;;;;;;;5011510;28;20042;-64
2024/03/18 11:19:34;;;;;;;3.30;2.13;;;;;;;;;;5014394;28;20222;-64
2024/03/18 11:22:01;;;;;;;10.70;3.08;;;12.90;52.60;;;;;;5018514;28;20029;-65
2024/03/18 11:24:31;;;;;;;8.55;2.95;;;12.60;52.20;;;;;;5018815;28;20053;-65
2024/03/18 11:26:58;;;;;;;6.00;3.70;;;12.20;46.50;;;;;;5031589;28;20037;-64
2024/03/18 11:29:55;;;;;;;4.32;2.60;;;12.30;46.90;;;;;;5022274;28;20152;-64
2024/03/18 11:32:21;;;;;;;4.57;2.28;;;12.20;52.10;;;;;;5026536;28;20033;-65
2024/03/18 11:34:57;;;;;;;6.40;3.20;;;12.00;46.90;;;;;;5020769;28;20033;-65
2024/03/18 11:37:24;;;;;;;7.38;3.55;;;;;;;;;;5022634;28;20101;-64
2024/03/18 11:39:50;;;;;;;3.67;2.10;;;;;;;;;;5015838;28;20054;-65
2024/03/18 11:42:16;;;;;;;3.72;2.03;;;;;;;;;;5033036;28;20048;-69
2024/03/18 11:44:49;;;;;;;11.25;4.03;;;12.10;45.80;;;;;;5022560;28;20030;-68
2024/03/18 11:47:16;;;;;;;6.38;3.22;;;11.90;54.00;;;;;;5024319;28;20292;-65
2024/03/18 11:49:43;;;;;;;9.23;3.65;;;;;;;;;;5041602;28;20033;-67
2024/03/18 11:52:13;;;;;;;5.32;2.72;;;12.10;45.80;;;;;;5020345;28;20048;-65
2024/03/18 11:54:39;;;;;;;6.78;3.28;;;;;;;;;;5010191;28;20085;-65
2024/03/18 11:57:05;;;;;;;3.55;2.53;;;;;;;;;;5026178;28;20097;-65
2024/03/18 11:59:31;;;;;;;6.70;3.03;;;;;;;;;;5023621;28;20033;-64
2024/03/18 12:02:02;;;;;;;4.70;2.60;;;12.60;45.30;;;;;;5032156;28;20034;-64
2024/03/18 12:04:29;;;;;;;7.53;2.83;;;;;;;;;;5041862;28;20029;-66
2024/03/18 12:06:55;;;;;;;7.63;4.07;;;12.90;48.40;;;;;;5031367;28;20026;-65
2024/03/18 12:09:29;;;;;;;3.72;2.45;;;;;;;;;;5016946;28;20049;-66
2024/03/18 12:11:55;;;;;;;6.07;3.40;;;13.20;58.20;;;;;;5023086;28;20033;-65
2024/03/18 12:14:21;;;;;;;4.25;2.75;;;;;;;;;;5025299;28;20252;-73
2024/03/18 12:16:54;;;;;;;5.85;2.75;;;13.50;60.50;;;;;;5023941;28;20342;-72
2024/03/18 12:19:20;;;;;;;4.40;2.50;;;13.50;44.00;;;;;;5019996;28;20035;-68
2024/03/18 12:21:47;;;;;;;3.90;2.53;;;13.40;42.90;;;;;;5020458;28;20137;-66
2024/03/18 12:29:43;;;;;;;4.78;2.45;;;13.10;58.90;;;;;;5024176;28;20336;-68
2024/03/18 12:32:13;;;;;;;4.18;2.83;;;12.90;43.10;;;;;;5021766;28;20029;-67
2024/03/18 12:34:40;;;;;;;6.03;2.50;;;12.90;57.30;;;;;;5022842;28;20340;-66
2024/03/18 12:37:15;;;;;;;5.78;3.25;;;12.90;57.40;;;;;;5020669;28;20037;-66
2024/03/18 12:39:41;;;;;;;6.35;3.25;;;12.70;56.90;;;;;;5020402;28;20056;-65
2024/03/18 12:42:15;;;;;;;5.43;2.80;;;12.90;45.40;;;;;;5028070;28;20113;-67
2024/03/18 12:44:41;;;;;;;5.10;2.60;;;13.30;55.40;;;;;;5029422;28;20029;-65
2024/03/18 12:47:10;;;;;;;5.85;2.60;;;13.50;55.10;;;;;;5029364;28;20041;-66
2024/03/18 12:49:36;;;;;;;3.28;2.67;;;13.50;54.80;;;;;;5030256;28;20234;-66
2024/03/18 12:52:02;;;;;;;6.57;2.60;;;13.60;54.40;;;;;;5031243;28;20041;-66
2024/03/18 12:54:28;;;;;;;6.43;3.33;;;12.90;54.00;;;;;;5029070;28;20108;-65
2024/03/18 12:56:55;;;;;;;6.72;3.00;;;13.30;54.80;;;;;;5022721;28;20036;-66
2024/03/18 12:59:21;;;;;;;5.65;3.70;;;13.40;42.50;;;;;;5020758;28;20045;-69
2024/03/18 13:01:49;;;;;;;6.22;3.50;;;13.80;42.10;;;;;;5020511;28;20092;-66